Time;durP1;ratioP1;P1;durP2;ratioP2;P2;SDS_P1;SDS_P2;PMS_P1;PMS_P2;Temp;Humidity;BMP_temperature;BMP_pressure;BME280_temperature;BME280_humidity;BME280_pressure;Samples;Min_cycle;Max_cycle;Signal;HPM_P1;HPM_P2
2021/04/27 01:04:45;;;;;;;1.43;1.10;;;22.20;46.60;;;;;;4800345;30;21052;-87
2021/04/27 01:08:22;;;;;;;;;;;;;;;;;;;;;
2021/04/27 01:15:25;;;;;;;1.30;0.90;;;22.40;46.60;;;;;;4786228;29;20413;-86
2021/04/27 01:28:48;;;;;;;;;;;;;;;;;;;;;
2021/04/27 02:56:40;;;;;;;;;;;;;;;;;;;;;
2021/04/27 03:17:46;;;;;;;;;;;;;;;;;;;;;
2021/04/27 03:28:04;;;;;;;;;;;;;;;;;;;;;
2021/04/27 05:15:13;;;;;;;1.00;0.80;;;22.50;45.10;;;;;;6143260;23;20395;-87
2021/04/27 09:03:50;;;;;;;;;;;;;;;;;;;;;
2021/04/27 09:28:26;;;;;;;2.10;1.10;;;22.80;45.20;;;;;;5780537;24;20391;-87
2021/04/27 09:48:11;;;;;;;1.57;1.43;;;22.80;45.20;;;;;;5895780;24;20368;-86
2021/04/27 10:58:55;;;;;;;1.47;1.07;;;22.90;46.10;;;;;;6083517;23;20370;-86
2021/04/27 12:11:00;;;;;;;;;;;;;;;;;;;;;
2021/04/27 12:14:31;;;;;;;6.60;3.77;;;22.40;45.10;;;;;;6290845;22;20503;-84
2021/04/27 12:20:25;;;;;;;5.53;3.57;;;22.40;45.10;;;;;;6143547;23;20360;-85
2021/04/27 12:40:51;;;;;;;;;;;;;;;;;;;;;
2021/04/27 12:54:13;;;;;;;;;;;;;;;;;;;;;
2021/04/27 13:01:19;;;;;;;;;;;;;;;;;;;;;
2021/04/27 13:43:17;;;;;;;;;;;;;;;;;;;;;
2021/04/27 13:55:57;;;;;;;3.67;2.90;;;22.30;45.10;;;;;;6236096;23;20355;-83
2021/04/27 13:58:32;;;;;;;4.17;2.40;;;22.30;45.30;;;;;;6234333;23;20373;-84
2021/04/27 14:01:16;;;;;;;2.60;2.40;;;22.30;45.30;;;;;;6231780;23;20384;-85
2021/04/27 14:04:12;;;;;;;3.20;2.00;;;22.30;45.20;;;;;;6233962;23;20386;-85
2021/04/27 14:10:09;;;;;;;4.37;3.00;;;22.30;45.10;;;;;;6217945;23;20370;-85
2021/04/27 14:13:10;;;;;;;2.63;2.43;;;22.30;45.20;;;;;;6232671;23;20417;-85
2021/04/27 14:15:54;;;;;;;;;;;;;;;;;;;;;
2021/04/27 14:18:40;;;;;;;5.60;3.33;;;22.30;45.10;;;;;;6232427;23;20363;-84
2021/04/27 14:21:37;;;;;;;2.90;2.60;;;22.40;45.20;;;;;;6204082;23;20355;-84
2021/04/27 14:24:35;;;;;;;4.23;2.10;;;22.40;45.10;;;;;;6204239;23;20393;-84
2021/04/27 14:27:28;;;;;;;;;;;;;;;;;;;;;
2021/04/27 14:30:27;;;;;;;;;;;;;;;;;;;;;
2021/04/27 14:42:46;;;;;;;;;;;;;;;;;;;;;
2021/04/27 14:45:30;;;;;;;2.50;2.30;;;22.30;45.20;;;;;;6326964;22;20387;-86
2021/04/27 14:48:08;;;;;;;2.73;2.17;;;22.30;45.10;;;;;;6299916;22;20431;-84
2021/04/27 14:50:40;;;;;;;4.43;2.43;;;22.30;45.10;;;;;;6298958;22;20383;-84
2021/04/27 14:53:29;;;;;;;4.33;3.30;;;22.30;45.00;;;;;;6327933;22;20422;-83
2021/04/27 14:56:04;;;;;;;2.90;2.60;;;22.40;45.00;;;;;;6300932;22;20399;-84
2021/04/27 15:05:47;;;;;;;3.53;2.90;;;22.50;45.00;;;;;;6202871;22;20362;-83
2021/04/27 15:08:50;;;;;;;;;;;;;;;;;;;;;
2021/04/27 15:11:40;;;;;;;;;;;;;;;;;;;;;
2021/04/27 15:14:37;;;;;;;2.70;1.90;;;22.60;45.20;;;;;;6144648;23;20388;-82
2021/04/27 15:17:22;;;;;;;2.93;2.10;;;22.60;45.10;;;;;;6185680;23;20411;-83
2021/04/27 15:20:47;;;;;;;;;;;;;;;;;;;;;
2021/04/27 15:23:39;;;;;;;;;;;;;;;;;;;;;
2021/04/27 15:26:19;;;;;;;3.10;2.40;;;22.70;45.20;;;;;;6204978;23;20391;-82
2021/04/27 15:29:11;;;;;;;4.90;2.30;;;22.70;45.10;;;;;;6203862;23;20487;-83
2021/04/27 15:31:44;;;;;;;4.77;1.97;;;22.70;45.20;;;;;;6179614;23;20375;-83
2021/04/27 15:34:32;;;;;;;2.97;2.63;;;22.80;45.10;;;;;;6153321;23;20395;-87
2021/04/27 15:37:06;;;;;;;3.87;2.50;;;22.80;45.10;;;;;;6171908;23;20379;-84
2021/04/27 15:39:33;;;;;;;4.90;2.43;;;22.80;45.20;;;;;;6293517;22;20375;-84
2021/04/27 15:42:05;;;;;;;5.37;3.50;;;22.80;45.20;;;;;;6292723;22;20394;-84
2021/04/27 15:44:51;;;;;;;3.23;2.30;;;22.80;45.10;;;;;;6292764;22;20425;-83
2021/04/27 15:47:26;;;;;;;2.00;1.90;;;22.80;45.10;;;;;;6292377;22;20406;-83
2021/04/27 15:50:07;;;;;;;2.27;2.07;;;22.90;45.20;;;;;;6292928;22;20821;-82
2021/04/27 15:52:49;;;;;;;2.07;1.87;;;22.80;45.10;;;;;;6292895;22;20419;-84
2021/04/27 15:55:27;;;;;;;2.50;2.03;;;22.80;45.10;;;;;;6292929;22;20379;-83
2021/04/27 15:58:05;;;;;;;3.10;2.37;;;22.90;45.20;;;;;;6292464;22;20375;-83
2021/04/27 16:07:13;;;;;;;3.27;1.80;;;22.90;45.20;;;;;;6196422;23;20350;-83
2021/04/27 16:10:04;;;;;;;4.30;1.87;;;22.90;45.30;;;;;;6170787;23;20885;-83
2021/04/27 16:26:25;;;;;;;3.43;1.50;;;22.90;45.30;;;;;;6077851;23;20418;-85
2021/04/27 16:53:30;;;;;;;2.83;2.07;;;22.90;45.40;;;;;;6021082;23;20525;-83
2021/04/27 17:00:12;;;;;;;;;;;;;;;;;;;;;
2021/04/27 18:20:49;;;;;;;1.70;1.40;;;23.00;45.50;;;;;;5886343;24;20369;-83
2021/04/27 18:23:21;;;;;;;1.90;1.60;;;23.00;45.50;;;;;;5898676;24;20406;-85
2021/04/27 18:26:03;;;;;;;;;;;;;;;;;;;;;
2021/04/27 18:31:56;;;;;;;1.60;1.50;;;23.10;45.50;;;;;;5969506;24;20375;-84
2021/04/27 18:35:05;;;;;;;1.40;1.20;;;23.00;45.40;;;;;;5971098;24;20430;-86
2021/04/27 18:38:08;;;;;;;;;;;;;;;;;;;;;
2021/04/27 18:40:57;;;;;;;;;;;;;;;;;;;;;
2021/04/27 18:43:49;;;;;;;2.97;1.70;;;23.00;45.50;;;;;;6055275;23;20391;-87
2021/04/27 18:49:49;;;;;;;1.50;1.40;;;23.00;45.50;;;;;;6112367;23;20479;-84
2021/04/27 18:52:24;;;;;;;2.40;1.50;;;23.00;45.50;;;;;;6173373;23;20423;-83
2021/04/27 18:54:56;;;;;;;1.50;1.40;;;23.00;45.50;;;;;;6293276;22;20470;-83
2021/04/27 18:57:45;;;;;;;2.13;1.40;;;23.00;45.60;;;;;;6301890;22;20376;-83
2021/04/27 19:00:24;;;;;;;2.50;1.57;;;22.90;45.50;;;;;;6301499;22;20380;-83
2021/04/27 19:02:56;;;;;;;2.10;1.60;;;22.90;45.50;;;;;;6301000;22;20738;-83
2021/04/27 19:05:32;;;;;;;1.83;1.40;;;22.90;45.60;;;;;;6328691;22;20367;-82
2021/04/27 19:08:11;;;;;;;1.90;1.60;;;22.90;45.60;;;;;;6299521;22;20367;-82
2021/04/27 19:10:46;;;;;;;1.60;1.33;;;22.90;45.50;;;;;;6298251;22;20387;-82
2021/04/27 19:13:21;;;;;;;2.20;1.53;;;22.90;45.60;;;;;;6298943;22;20426;-82
2021/04/27 19:15:55;;;;;;;1.60;1.50;;;22.90;45.60;;;;;;6327743;22;20354;-82
2021/04/27 19:18:27;;;;;;;3.03;1.93;;;22.80;45.50;;;;;;6300052;22;20383;-83
2021/04/27 19:21:27;;;;;;;1.90;1.70;;;22.80;46.10;;;;;;6300089;22;20439;-84
2021/04/27 19:23:54;;;;;;;2.20;1.60;;;22.90;45.60;;;;;;6296036;22;20363;-84
2021/04/27 19:26:48;;;;;;;1.93;1.50;;;22.80;45.50;;;;;;6299289;22;20418;-84
2021/04/27 19:29:20;;;;;;;2.37;1.77;;;22.80;45.50;;;;;;6297358;22;20379;-85
2021/04/27 19:31:56;;;;;;;;;;;;;;;;;;;;;
2021/04/27 19:34:33;;;;;;;1.90;1.30;;;22.80;45.60;;;;;;6328762;22;20348;-83
2021/04/27 19:37:05;;;;;;;2.50;1.80;;;22.80;45.60;;;;;;6300329;22;20363;-86
2021/04/27 19:39:34;;;;;;;2.00;1.80;;;22.80;45.60;;;;;;6299425;22;20371;-85
2021/04/27 19:42:05;;;;;;;1.87;1.47;;;22.80;45.60;;;;;;6327150;22;20363;-85
2021/04/27 19:44:35;;;;;;;1.97;1.60;;;22.80;45.60;;;;;;6327770;22;20378;-85
2021/04/27 19:47:06;;;;;;;1.97;1.60;;;22.80;45.60;;;;;;6326770;22;20425;-84
2021/04/27 19:49:40;;;;;;;1.90;1.70;;;22.80;45.60;;;;;;6299190;22;20364;-85
2021/04/27 19:52:10;;;;;;;3.73;1.77;;;22.80;45.50;;;;;;6326352;22;20336;-84
2021/04/27 19:54:37;;;;;;;2.50;1.87;;;22.70;45.50;;;;;;6299144;22;20462;-85
2021/04/27 19:57:18;;;;;;;2.20;1.87;;;22.70;45.40;;;;;;6327534;22;20416;-85
2021/04/27 19:59:45;;;;;;;2.13;1.60;;;22.80;46.00;;;;;;6300380;22;20467;-84
2021/04/27 20:02:13;;;;;;;2.53;1.67;;;22.70;45.40;;;;;;6299248;22;20411;-85
2021/04/27 20:04:42;;;;;;;4.03;1.77;;;22.70;45.40;;;;;;6300799;22;20388;-84
2021/04/27 20:07:11;;;;;;;3.30;1.97;;;22.70;45.30;;;;;;6299463;22;20407;-84
2021/04/27 20:09:49;;;;;;;2.63;2.00;;;22.70;45.30;;;;;;6326918;22;20806;-85
2021/04/27 20:12:17;;;;;;;3.23;2.40;;;22.70;45.30;;;;;;6326079;22;20862;-85
2021/04/27 20:14:45;;;;;;;2.90;2.17;;;22.70;45.30;;;;;;6324666;22;20421;-86
2021/04/27 20:17:12;;;;;;;2.90;2.07;;;22.70;45.20;;;;;;6297835;22;20371;-86
2021/04/27 20:19:42;;;;;;;4.13;2.03;;;22.70;45.30;;;;;;6324687;22;20725;-85
2021/04/27 20:22:18;;;;;;;4.20;2.00;;;22.70;45.30;;;;;;6324171;22;20427;-85
2021/04/27 20:24:51;;;;;;;3.03;1.83;;;22.70;45.20;;;;;;6324930;22;20335;-85
2021/04/27 20:27:19;;;;;;;3.43;2.13;;;22.70;45.20;;;;;;6326064;22;20340;-85
2021/04/27 20:29:45;;;;;;;2.60;1.90;;;22.70;45.20;;;;;;6297793;22;20371;-85
2021/04/27 20:32:18;;;;;;;3.23;1.83;;;22.70;45.30;;;;;;6297898;22;20371;-84
2021/04/27 20:34:49;;;;;;;3.13;1.60;;;22.70;45.30;;;;;;6300882;22;20435;-83
2021/04/27 20:37:15;;;;;;;4.70;2.20;;;22.70;45.30;;;;;;6327709;22;20360;-83
2021/04/27 20:39:48;;;;;;;3.00;1.87;;;22.70;45.30;;;;;;6300052;22;20383;-83
2021/04/27 20:42:29;;;;;;;3.53;2.30;;;22.70;45.40;;;;;;6299834;22;20459;-84
2021/04/27 20:44:55;;;;;;;2.90;2.10;;;22.70;45.40;;;;;;6298419;22;20392;-84
2021/04/27 20:47:24;;;;;;;3.70;2.13;;;22.70;45.40;;;;;;6327154;22;20364;-83
2021/04/27 20:50:08;;;;;;;2.60;2.20;;;22.70;45.40;;;;;;6299076;22;20379;-84
2021/04/27 20:52:38;;;;;;;4.40;2.03;;;22.70;45.40;;;;;;6299761;22;20506;-84
2021/04/27 20:55:09;;;;;;;4.57;2.03;;;22.70;45.40;;;;;;6325993;22;20390;-83
2021/04/27 20:57:37;;;;;;;2.57;2.10;;;22.70;45.40;;;;;;6299799;22;20376;-82
2021/04/27 21:00:16;;;;;;;2.40;1.77;;;22.70;45.40;;;;;;6299450;22;20376;-84
2021/04/27 21:02:47;;;;;;;2.97;2.33;;;22.70;45.40;;;;;;6298765;22;20375;-84
2021/04/27 21:05:15;;;;;;;2.70;1.80;;;22.60;45.30;;;;;;6328040;22;20359;-84
2021/04/27 21:07:46;;;;;;;2.30;1.90;;;22.70;45.40;;;;;;6299911;22;20390;-83
2021/04/27 21:10:13;;;;;;;3.20;1.70;;;22.60;45.30;;;;;;6299680;22;20387;-82
2021/04/27 21:12:41;;;;;;;2.83;1.70;;;22.60;45.30;;;;;;6299891;22;20424;-84
2021/04/27 21:15:21;;;;;;;2.67;1.90;;;22.60;45.30;;;;;;6298758;22;20382;-82
2021/04/27 21:17:48;;;;;;;2.70;2.30;;;22.80;45.50;;;;;;6299083;22;20446;-83
2021/04/27 21:20:18;;;;;;;1.90;1.70;;;22.60;45.30;;;;;;6298836;22;20895;-83
2021/04/27 21:22:47;;;;;;;2.30;2.03;;;22.60;45.30;;;;;;6299104;22;20766;-84
2021/04/27 21:25:15;;;;;;;2.47;1.73;;;22.60;45.30;;;;;;6324957;22;20375;-85
2021/04/27 21:27:50;;;;;;;3.20;1.90;;;22.60;45.30;;;;;;6297445;22;20390;-85
2021/04/27 21:30:17;;;;;;;2.20;1.80;;;22.60;45.30;;;;;;6325165;22;20355;-84
2021/04/27 21:32:47;;;;;;;1.93;1.43;;;22.60;45.30;;;;;;6297932;22;20425;-84
2021/04/27 21:35:17;;;;;;;2.33;1.47;;;22.50;45.30;;;;;;6326351;22;20345;-84
2021/04/27 21:37:44;;;;;;;2.10;1.60;;;22.50;45.30;;;;;;6300587;22;20379;-85
2021/04/27 21:40:16;;;;;;;2.47;1.73;;;22.50;45.30;;;;;;6327384;22;20360;-83
2021/04/27 21:42:52;;;;;;;2.13;1.43;;;22.50;45.30;;;;;;6300620;22;20374;-83
2021/04/27 21:45:33;;;;;;;;;;;;;;;;;;;;;
2021/04/27 21:47:59;;;;;;;2.03;1.77;;;22.50;45.30;;;;;;6328957;22;20682;-84
2021/04/27 21:50:28;;;;;;;1.40;1.30;;;22.50;45.40;;;;;;6328669;22;20406;-84
2021/04/27 21:52:57;;;;;;;2.20;2.00;;;22.40;45.30;;;;;;6300476;22;20423;-83
2021/04/27 21:55:23;;;;;;;2.50;2.30;;;22.50;45.40;;;;;;6299880;22;20390;-83
2021/04/27 21:57:49;;;;;;;2.33;2.03;;;22.40;45.30;;;;;;6299410;22;20401;-83
2021/04/27 22:00:31;;;;;;;2.10;1.70;;;22.50;45.40;;;;;;6326620;22;20683;-83
2021/04/27 22:03:03;;;;;;;2.03;1.80;;;22.50;45.40;;;;;;6327981;22;20266;-82
2021/04/27 22:05:32;;;;;;;1.50;1.40;;;22.50;45.40;;;;;;6299298;22;20382;-82
2021/04/27 22:07:59;;;;;;;1.73;1.23;;;22.50;45.40;;;;;;6300060;22;20379;-83
2021/04/27 22:10:31;;;;;;;2.27;1.73;;;22.50;45.40;;;;;;6299844;22;20499;-83
2021/04/27 22:12:59;;;;;;;2.07;1.87;;;22.50;45.40;;;;;;6299161;22;20418;-82
2021/04/27 22:15:38;;;;;;;;;;;;;;;;;;;;;
2021/04/27 22:18:09;;;;;;;1.93;1.57;;;22.50;45.50;;;;;;6331096;22;20351;-85
2021/04/27 22:20:39;;;;;;;2.33;1.77;;;22.50;45.50;;;;;;6330547;22;20371;-85
2021/04/27 22:23:08;;;;;;;3.07;2.17;;;22.50;45.40;;;;;;6303751;22;20447;-85
2021/04/27 22:25:40;;;;;;;3.63;2.13;;;22.50;45.40;;;;;;6329480;22;20372;-85
2021/04/27 22:28:11;;;;;;;2.57;2.13;;;22.40;45.30;;;;;;6330513;22;20359;-85
2021/04/27 22:30:54;;;;;;;3.17;2.07;;;22.50;45.30;;;;;;6302955;22;20793;-85
2021/04/27 22:33:21;;;;;;;3.83;1.50;;;22.50;45.30;;;;;;6329991;22;20395;-84
2021/04/27 22:35:53;;;;;;;2.87;2.03;;;22.50;45.30;;;;;;6302607;22;20383;-85
2021/04/27 22:38:26;;;;;;;2.50;2.30;;;22.50;45.30;;;;;;6301084;22;20394;-84
2021/04/27 22:40:55;;;;;;;3.27;3.07;;;22.50;45.30;;;;;;6301097;22;20376;-84
2021/04/27 22:43:23;;;;;;;2.73;1.97;;;22.50;45.30;;;;;;6327591;22;20383;-84
2021/04/27 22:45:52;;;;;;;2.17;1.50;;;22.50;45.20;;;;;;6327432;22;20392;-83
2021/04/27 22:48:18;;;;;;;2.60;1.60;;;22.50;45.20;;;;;;6300852;22;20387;-83
2021/04/27 22:50:49;;;;;;;1.83;1.67;;;22.50;45.20;;;;;;6299614;22;20414;-83
2021/04/27 22:53:16;;;;;;;4.10;1.63;;;22.50;45.20;;;;;;6300018;22;20415;-82
2021/04/27 22:55:44;;;;;;;4.20;1.90;;;22.50;45.20;;;;;;6300773;22;20379;-83
2021/04/27 22:58:13;;;;;;;2.20;1.47;;;22.50;45.20;;;;;;6300446;22;20387;-83
2021/04/27 23:00:45;;;;;;;1.90;1.70;;;22.50;45.30;;;;;;6327569;22;20367;-83
2021/04/27 23:03:13;;;;;;;2.13;1.60;;;22.50;45.30;;;;;;6301361;22;20379;-83
2021/04/27 23:05:44;;;;;;;1.43;1.33;;;22.50;45.30;;;;;;6300560;22;20389;-83
2021/04/27 23:08:13;;;;;;;1.77;1.63;;;22.50;45.30;;;;;;6328296;22;20442;-83
2021/04/27 23:10:44;;;;;;;2.00;1.80;;;22.50;45.40;;;;;;6302266;22;20379;-83
2021/04/27 23:13:11;;;;;;;1.47;1.37;;;22.50;45.30;;;;;;6328379;22;20415;-84
2021/04/27 23:15:37;;;;;;;1.97;1.60;;;22.50;45.40;;;;;;6301247;22;20379;-84
2021/04/27 23:18:05;;;;;;;1.67;1.47;;;22.50;45.40;;;;;;6301824;22;20459;-83
2021/04/27 23:20:35;;;;;;;1.73;1.37;;;22.50;45.40;;;;;;6301233;22;20642;-82
2021/04/27 23:23:02;;;;;;;2.13;1.53;;;22.40;45.30;;;;;;6328556;22;20423;-83
2021/04/27 23:25:29;;;;;;;1.93;1.47;;;22.40;45.40;;;;;;6301277;22;20443;-84
2021/04/27 23:28:04;;;;;;;3.30;1.60;;;22.40;45.30;;;;;;6299200;22;20419;-84
2021/04/27 23:30:30;;;;;;;1.97;1.60;;;22.40;45.40;;;;;;6299551;22;20383;-84
2021/04/27 23:32:57;;;;;;;2.30;1.50;;;22.40;45.40;;;;;;6325586;22;20422;-85
2021/04/27 23:35:26;;;;;;;3.13;1.57;;;22.50;45.50;;;;;;6298785;22;20397;-85
2021/04/27 23:38:23;;;;;;;1.30;1.20;;;22.40;45.40;;;;;;6298498;22;20444;-86
2021/04/27 23:40:48;;;;;;;2.30;1.47;;;22.40;45.40;;;;;;6325392;22;20362;-85
2021/04/27 23:43:17;;;;;;;1.40;1.10;;;22.40;45.50;;;;;;6324616;22;20833;-85
2021/04/27 23:45:50;;;;;;;1.90;1.37;;;22.40;45.50;;;;;;6328157;22;20368;-86
2021/04/27 23:48:25;;;;;;;2.60;1.60;;;22.40;46.10;;;;;;6295269;22;20371;-85
2021/04/27 23:50:58;;;;;;;2.40;1.93;;;22.40;45.50;;;;;;6328060;22;20429;-85
2021/04/27 23:53:29;;;;;;;1.70;1.40;;;22.40;45.50;;;;;;6328559;22;20414;-85
2021/04/27 23:56:03;;;;;;;2.20;1.43;;;22.40;45.60;;;;;;6300914;22;20375;-85
2021/04/27 23:58:31;;;;;;;2.17;1.70;;;22.40;45.50;;;;;;6300193;22;20378;-85
